LYKV

Kraljevo/Morava

Airport
ICAO code
LYKV
IATA Code
KVO
Summary
ICAO Region
EUR
ICAO Territory
Location

Ladevci, Kraljevo

Serving
Kraljevo
Elevation
686 ft
Coordinates
43° 49' 5" N , 20° 35' 10" E
KCC
Metar
LYKV 140430Z 31004KT 9999 SCT027 BKN045 15/13 Q1017 NOSIG

Description

Kraljevo-Lađevci Airport also known as Obrva is an airport in the Kraljevo Municipality, Serbia. The airport is located some 15 km from Kraljevo.

Climatology

Humid continental climate (Köppen climate classification Dfa) - characterized by four seasons: cold, windy, snowy winters, mild springs, hot, humid summers, and crisp and relatively short autumns. Precipitation reaches its lowest in January and February and peaks in summer and latter half of spring.

Airport map

Aerial View

SKYbrary Partners:

Safety knowledge contributed by: